sensor_id;sensor_type;location;lat;lon;timestamp;P1;durP1;ratioP1;P2;durP2;ratioP2
56005;SDS011;41888;44.696;10.522;2022-09-30T00:01:45;3.00;;;1.20;;
56005;SDS011;41888;44.696;10.522;2022-09-30T00:04:17;2.20;;;0.93;;
56005;SDS011;41888;44.696;10.522;2022-09-30T00:06:45;3.75;;;1.45;;
56005;SDS011;41888;44.696;10.522;2022-09-30T00:09:12;4.07;;;1.65;;
56005;SDS011;41888;44.696;10.522;2022-09-30T00:11:39;7.93;;;1.30;;
56005;SDS011;41888;44.696;10.522;2022-09-30T00:14:06;2.10;;;0.93;;
56005;SDS011;41888;44.696;10.522;2022-09-30T00:16:37;4.53;;;1.40;;
56005;SDS011;41888;44.696;10.522;2022-09-30T00:19:03;5.30;;;1.77;;
56005;SDS011;41888;44.696;10.522;2022-09-30T00:21:30;4.80;;;1.38;;
56005;SDS011;41888;44.696;10.522;2022-09-30T00:23:58;3.15;;;1.20;;
56005;SDS011;41888;44.696;10.522;2022-09-30T00:26:25;3.10;;;1.55;;
56005;SDS011;41888;44.696;10.522;2022-09-30T00:28:52;5.50;;;1.83;;
56005;SDS011;41888;44.696;10.522;2022-09-30T00:31:21;2.58;;;1.10;;
56005;SDS011;41888;44.696;10.522;2022-09-30T00:33:48;2.67;;;1.30;;
56005;SDS011;41888;44.696;10.522;2022-09-30T00:36:38;3.05;;;1.55;;
56005;SDS011;41888;44.696;10.522;2022-09-30T00:39:07;5.68;;;1.30;;
56005;SDS011;41888;44.696;10.522;2022-09-30T00:41:40;6.32;;;1.70;;
56005;SDS011;41888;44.696;10.522;2022-09-30T00:47:30;8.55;;;1.70;;
56005;SDS011;41888;44.696;10.522;2022-09-30T00:49:54;3.63;;;1.35;;
56005;SDS011;41888;44.696;10.522;2022-09-30T00:52:25;6.35;;;1.55;;
56005;SDS011;41888;44.696;10.522;2022-09-30T00:54:53;3.13;;;1.27;;
56005;SDS011;41888;44.696;10.522;2022-09-30T00:57:22;3.20;;;1.80;;
56005;SDS011;41888;44.696;10.522;2022-09-30T00:59:49;4.53;;;1.58;;
56005;SDS011;41888;44.696;10.522;2022-09-30T01:02:16;5.18;;;1.70;;
56005;SDS011;41888;44.696;10.522;2022-09-30T01:04:42;2.95;;;1.40;;
56005;SDS011;41888;44.696;10.522;2022-09-30T01:07:10;10.25;;;1.83;;
56005;SDS011;41888;44.696;10.522;2022-09-30T01:09:38;3.97;;;1.52;;
56005;SDS011;41888;44.696;10.522;2022-09-30T01:12:10;4.30;;;1.77;;
56005;SDS011;41888;44.696;10.522;2022-09-30T01:14:39;3.55;;;1.50;;
56005;SDS011;41888;44.696;10.522;2022-09-30T01:17:22;4.63;;;1.73;;
56005;SDS011;41888;44.696;10.522;2022-09-30T01:23:14;4.93;;;1.60;;
56005;SDS011;41888;44.696;10.522;2022-09-30T01:29:00;2.30;;;1.48;;
56005;SDS011;41888;44.696;10.522;2022-09-30T01:35:08;3.78;;;1.40;;
56005;SDS011;41888;44.696;10.522;2022-09-30T01:37:43;3.67;;;1.83;;
56005;SDS011;41888;44.696;10.522;2022-09-30T01:40:29;7.47;;;2.03;;
56005;SDS011;41888;44.696;10.522;2022-09-30T01:49:15;4.07;;;1.95;;
56005;SDS011;41888;44.696;10.522;2022-09-30T01:54:38;7.43;;;1.95;;
56005;SDS011;41888;44.696;10.522;2022-09-30T02:00:10;4.53;;;2.25;;
56005;SDS011;41888;44.696;10.522;2022-09-30T02:02:51;5.85;;;2.20;;
56005;SDS011;41888;44.696;10.522;2022-09-30T02:05:30;6.47;;;3.30;;
56005;SDS011;41888;44.696;10.522;2022-09-30T02:08:10;5.53;;;1.83;;
56005;SDS011;41888;44.696;10.522;2022-09-30T02:10:43;6.32;;;2.20;;
56005;SDS011;41888;44.696;10.522;2022-09-30T02:13:18;4.80;;;1.98;;
56005;SDS011;41888;44.696;10.522;2022-09-30T02:15:56;4.65;;;2.67;;
56005;SDS011;41888;44.696;10.522;2022-09-30T02:21:03;3.85;;;2.40;;
56005;SDS011;41888;44.696;10.522;2022-09-30T02:23:32;10.63;;;3.10;;
56005;SDS011;41888;44.696;10.522;2022-09-30T02:26:04;6.97;;;2.80;;
56005;SDS011;41888;44.696;10.522;2022-09-30T02:28:45;5.60;;;3.60;;
56005;SDS011;41888;44.696;10.522;2022-09-30T02:31:15;10.30;;;2.83;;
56005;SDS011;41888;44.696;10.522;2022-09-30T02:34:07;4.18;;;2.40;;
56005;SDS011;41888;44.696;10.522;2022-09-30T02:36:37;5.78;;;2.70;;
56005;SDS011;41888;44.696;10.522;2022-09-30T02:39:10;6.03;;;2.80;;
56005;SDS011;41888;44.696;10.522;2022-09-30T02:41:46;4.80;;;2.53;;
56005;SDS011;41888;44.696;10.522;2022-09-30T02:44:16;5.88;;;2.60;;
56005;SDS011;41888;44.696;10.522;2022-09-30T02:46:52;8.23;;;2.45;;
56005;SDS011;41888;44.696;10.522;2022-09-30T02:49:30;4.15;;;2.20;;
56005;SDS011;41888;44.696;10.522;2022-09-30T02:55:07;3.75;;;2.30;;
56005;SDS011;41888;44.696;10.522;2022-09-30T02:58:25;6.32;;;2.70;;
56005;SDS011;41888;44.696;10.522;2022-09-30T03:00:26;4.65;;;2.40;;
56005;SDS011;41888;44.696;10.522;2022-09-30T03:02:55;7.03;;;2.92;;
56005;SDS011;41888;44.696;10.522;2022-09-30T03:05:27;4.63;;;2.10;;
56005;SDS011;41888;44.696;10.522;2022-09-30T03:07:54;9.45;;;3.20;;
56005;SDS011;41888;44.696;10.522;2022-09-30T03:10:21;9.77;;;2.47;;
56005;SDS011;41888;44.696;10.522;2022-09-30T03:18:43;8.05;;;2.63;;
56005;SDS011;41888;44.696;10.522;2022-09-30T03:21:26;6.22;;;2.22;;
56005;SDS011;41888;44.696;10.522;2022-09-30T03:27:09;4.05;;;1.60;;
56005;SDS011;41888;44.696;10.522;2022-09-30T03:35:03;3.97;;;1.77;;
56005;SDS011;41888;44.696;10.522;2022-09-30T03:38:22;3.47;;;2.28;;
56005;SDS011;41888;44.696;10.522;2022-09-30T03:40:33;3.38;;;1.60;;
56005;SDS011;41888;44.696;10.522;2022-09-30T03:43:52;6.03;;;1.63;;
56005;SDS011;41888;44.696;10.522;2022-09-30T03:48:55;7.60;;;1.83;;
56005;SDS011;41888;44.696;10.522;2022-09-30T03:53:53;6.57;;;1.65;;
56005;SDS011;41888;44.696;10.522;2022-09-30T03:56:24;4.18;;;1.63;;
56005;SDS011;41888;44.696;10.522;2022-09-30T03:58:52;3.53;;;1.65;;
56005;SDS011;41888;44.696;10.522;2022-09-30T04:01:19;7.07;;;2.17;;
56005;SDS011;41888;44.696;10.522;2022-09-30T04:03:49;8.07;;;2.75;;
56005;SDS011;41888;44.696;10.522;2022-09-30T04:06:17;5.00;;;1.40;;
56005;SDS011;41888;44.696;10.522;2022-09-30T04:08:45;3.00;;;1.60;;
56005;SDS011;41888;44.696;10.522;2022-09-30T04:11:11;4.53;;;1.38;;
56005;SDS011;41888;44.696;10.522;2022-09-30T04:13:37;5.82;;;1.75;;
56005;SDS011;41888;44.696;10.522;2022-09-30T04:16:04;5.50;;;1.58;;
56005;SDS011;41888;44.696;10.522;2022-09-30T04:18:33;5.32;;;1.92;;
56005;SDS011;41888;44.696;10.522;2022-09-30T04:21:03;4.03;;;2.05;;
56005;SDS011;41888;44.696;10.522;2022-09-30T04:23:36;3.53;;;1.67;;
56005;SDS011;41888;44.696;10.522;2022-09-30T04:26:04;3.38;;;1.85;;
56005;SDS011;41888;44.696;10.522;2022-09-30T04:28:32;5.22;;;2.17;;
56005;SDS011;41888;44.696;10.522;2022-09-30T04:30:59;9.05;;;2.10;;
56005;SDS011;41888;44.696;10.522;2022-09-30T04:33:26;3.08;;;1.90;;
56005;SDS011;41888;44.696;10.522;2022-09-30T04:35:56;5.13;;;2.33;;
56005;SDS011;41888;44.696;10.522;2022-09-30T04:38:24;4.18;;;1.90;;
56005;SDS011;41888;44.696;10.522;2022-09-30T04:40:50;2.60;;;1.95;;
56005;SDS011;41888;44.696;10.522;2022-09-30T04:43:18;4.15;;;1.88;;
56005;SDS011;41888;44.696;10.522;2022-09-30T04:45:47;5.32;;;1.95;;
56005;SDS011;41888;44.696;10.522;2022-09-30T04:48:15;10.50;;;3.60;;
56005;SDS011;41888;44.696;10.522;2022-09-30T04:50:41;3.67;;;2.88;;
56005;SDS011;41888;44.696;10.522;2022-09-30T04:53:08;4.72;;;2.20;;
56005;SDS011;41888;44.696;10.522;2022-09-30T04:55:38;9.75;;;2.72;;
56005;SDS011;41888;44.696;10.522;2022-09-30T04:58:05;4.15;;;2.60;;
56005;SDS011;41888;44.696;10.522;2022-09-30T05:00:31;8.80;;;3.17;;
56005;SDS011;41888;44.696;10.522;2022-09-30T05:02:57;10.13;;;2.70;;
56005;SDS011;41888;44.696;10.522;2022-09-30T05:05:24;19.13;;;4.00;;
56005;SDS011;41888;44.696;10.522;2022-09-30T05:07:50;10.13;;;4.68;;
56005;SDS011;41888;44.696;10.522;2022-09-30T05:10:16;6.82;;;4.90;;
56005;SDS011;41888;44.696;10.522;2022-09-30T05:12:42;14.20;;;5.90;;
56005;SDS011;41888;44.696;10.522;2022-09-30T05:15:10;7.88;;;4.45;;
56005;SDS011;41888;44.696;10.522;2022-09-30T05:17:36;10.88;;;5.97;;
56005;SDS011;41888;44.696;10.522;2022-09-30T05:20:02;14.90;;;7.13;;
56005;SDS011;41888;44.696;10.522;2022-09-30T05:22:34;11.70;;;6.95;;
56005;SDS011;41888;44.696;10.522;2022-09-30T05:25:01;12.32;;;8.25;;
56005;SDS011;41888;44.696;10.522;2022-09-30T05:27:28;10.27;;;6.35;;
56005;SDS011;41888;44.696;10.522;2022-09-30T05:29:55;10.57;;;7.20;;
56005;SDS011;41888;44.696;10.522;2022-09-30T05:32:21;14.40;;;9.32;;
56005;SDS011;41888;44.696;10.522;2022-09-30T05:34:48;12.48;;;7.97;;
56005;SDS011;41888;44.696;10.522;2022-09-30T05:37:16;17.08;;;8.32;;
56005;SDS011;41888;44.696;10.522;2022-09-30T05:39:42;10.70;;;8.13;;
56005;SDS011;41888;44.696;10.522;2022-09-30T05:42:09;10.65;;;7.10;;
56005;SDS011;41888;44.696;10.522;2022-09-30T05:44:35;8.77;;;6.35;;
56005;SDS011;41888;44.696;10.522;2022-09-30T05:47:03;8.77;;;6.70;;
56005;SDS011;41888;44.696;10.522;2022-09-30T05:49:29;13.75;;;7.05;;
56005;SDS011;41888;44.696;10.522;2022-09-30T05:51:58;10.63;;;6.40;;
56005;SDS011;41888;44.696;10.522;2022-09-30T05:54:24;10.55;;;7.13;;
56005;SDS011;41888;44.696;10.522;2022-09-30T05:56:51;10.73;;;6.75;;
56005;SDS011;41888;44.696;10.522;2022-09-30T05:59:17;14.85;;;7.60;;
56005;SDS011;41888;44.696;10.522;2022-09-30T06:01:44;9.77;;;6.43;;
56005;SDS011;41888;44.696;10.522;2022-09-30T06:04:10;10.00;;;6.30;;
56005;SDS011;41888;44.696;10.522;2022-09-30T06:06:36;9.95;;;5.97;;
56005;SDS011;41888;44.696;10.522;2022-09-30T06:09:03;13.20;;;5.95;;
56005;SDS011;41888;44.696;10.522;2022-09-30T06:11:29;9.57;;;6.47;;
56005;SDS011;41888;44.696;10.522;2022-09-30T06:13:55;11.55;;;6.10;;
56005;SDS011;41888;44.696;10.522;2022-09-30T06:16:22;11.80;;;6.65;;
56005;SDS011;41888;44.696;10.522;2022-09-30T06:18:48;8.95;;;6.63;;
56005;SDS011;41888;44.696;10.522;2022-09-30T06:21:15;9.55;;;6.38;;
56005;SDS011;41888;44.696;10.522;2022-09-30T06:23:42;13.52;;;6.88;;
56005;SDS011;41888;44.696;10.522;2022-09-30T06:26:09;9.85;;;6.05;;
56005;SDS011;41888;44.696;10.522;2022-09-30T06:28:38;11.10;;;7.15;;
56005;SDS011;41888;44.696;10.522;2022-09-30T06:31:05;11.25;;;6.60;;
56005;SDS011;41888;44.696;10.522;2022-09-30T06:33:31;12.43;;;6.93;;
56005;SDS011;41888;44.696;10.522;2022-09-30T06:35:57;9.60;;;6.28;;
56005;SDS011;41888;44.696;10.522;2022-09-30T06:38:28;9.82;;;6.82;;
56005;SDS011;41888;44.696;10.522;2022-09-30T06:40:57;10.63;;;7.55;;
56005;SDS011;41888;44.696;10.522;2022-09-30T06:43:24;12.50;;;7.45;;
56005;SDS011;41888;44.696;10.522;2022-09-30T06:45:50;14.00;;;7.15;;
56005;SDS011;41888;44.696;10.522;2022-09-30T06:48:16;11.00;;;7.93;;
56005;SDS011;41888;44.696;10.522;2022-09-30T06:50:43;13.50;;;7.45;;
56005;SDS011;41888;44.696;10.522;2022-09-30T06:53:10;9.85;;;6.55;;
56005;SDS011;41888;44.696;10.522;2022-09-30T06:55:37;12.40;;;7.78;;
56005;SDS011;41888;44.696;10.522;2022-09-30T06:58:04;16.33;;;7.40;;
56005;SDS011;41888;44.696;10.522;2022-09-30T07:00:33;11.55;;;7.35;;
56005;SDS011;41888;44.696;10.522;2022-09-30T07:03:00;15.73;;;7.95;;
56005;SDS011;41888;44.696;10.522;2022-09-30T07:05:27;16.40;;;7.20;;
56005;SDS011;41888;44.696;10.522;2022-09-30T07:07:53;12.00;;;7.05;;
56005;SDS011;41888;44.696;10.522;2022-09-30T07:10:20;11.15;;;6.95;;
56005;SDS011;41888;44.696;10.522;2022-09-30T07:12:49;11.98;;;6.93;;
56005;SDS011;41888;44.696;10.522;2022-09-30T07:15:16;13.70;;;7.50;;
56005;SDS011;41888;44.696;10.522;2022-09-30T07:17:55;12.52;;;6.80;;
56005;SDS011;41888;44.696;10.522;2022-09-30T07:20:21;11.45;;;7.55;;
56005;SDS011;41888;44.696;10.522;2022-09-30T07:22:48;10.13;;;6.47;;
56005;SDS011;41888;44.696;10.522;2022-09-30T07:25:14;11.73;;;6.47;;
56005;SDS011;41888;44.696;10.522;2022-09-30T07:27:42;10.45;;;6.60;;
56005;SDS011;41888;44.696;10.522;2022-09-30T07:30:09;11.27;;;7.05;;
56005;SDS011;41888;44.696;10.522;2022-09-30T07:32:35;9.80;;;6.13;;
56005;SDS011;41888;44.696;10.522;2022-09-30T07:35:02;11.52;;;7.32;;
56005;SDS011;41888;44.696;10.522;2022-09-30T07:37:28;9.82;;;6.10;;
56005;SDS011;41888;44.696;10.522;2022-09-30T07:40:00;10.15;;;6.53;;
56005;SDS011;41888;44.696;10.522;2022-09-30T07:42:30;10.75;;;7.78;;
56005;SDS011;41888;44.696;10.522;2022-09-30T07:44:57;10.55;;;7.43;;
56005;SDS011;41888;44.696;10.522;2022-09-30T07:47:23;15.88;;;8.70;;
56005;SDS011;41888;44.696;10.522;2022-09-30T07:49:49;16.58;;;9.50;;
56005;SDS011;41888;44.696;10.522;2022-09-30T07:52:16;15.57;;;10.18;;
56005;SDS011;41888;44.696;10.522;2022-09-30T07:54:42;13.60;;;9.35;;
56005;SDS011;41888;44.696;10.522;2022-09-30T07:57:08;15.45;;;9.63;;
56005;SDS011;41888;44.696;10.522;2022-09-30T07:59:36;12.10;;;8.48;;
56005;SDS011;41888;44.696;10.522;2022-09-30T08:02:06;13.75;;;9.23;;
56005;SDS011;41888;44.696;10.522;2022-09-30T08:04:37;15.13;;;8.90;;
56005;SDS011;41888;44.696;10.522;2022-09-30T08:07:03;13.07;;;10.10;;
56005;SDS011;41888;44.696;10.522;2022-09-30T08:09:29;13.68;;;8.55;;
56005;SDS011;41888;44.696;10.522;2022-09-30T08:11:56;11.52;;;8.73;;
56005;SDS011;41888;44.696;10.522;2022-09-30T08:14:25;13.45;;;8.43;;
56005;SDS011;41888;44.696;10.522;2022-09-30T08:16:52;12.07;;;8.60;;
56005;SDS011;41888;44.696;10.522;2022-09-30T08:19:24;12.68;;;9.13;;
56005;SDS011;41888;44.696;10.522;2022-09-30T08:21:51;14.30;;;9.05;;
56005;SDS011;41888;44.696;10.522;2022-09-30T08:24:19;15.02;;;8.23;;
56005;SDS011;41888;44.696;10.522;2022-09-30T08:26:46;12.52;;;7.88;;
56005;SDS011;41888;44.696;10.522;2022-09-30T08:29:12;16.80;;;8.77;;
56005;SDS011;41888;44.696;10.522;2022-09-30T08:31:39;13.02;;;8.75;;
56005;SDS011;41888;44.696;10.522;2022-09-30T08:34:05;13.05;;;9.63;;
56005;SDS011;41888;44.696;10.522;2022-09-30T08:36:32;15.30;;;9.25;;
56005;SDS011;41888;44.696;10.522;2022-09-30T08:38:58;11.63;;;8.70;;
56005;SDS011;41888;44.696;10.522;2022-09-30T08:47:11;14.20;;;8.57;;
56005;SDS011;41888;44.696;10.522;2022-09-30T08:52:36;14.23;;;8.65;;
56005;SDS011;41888;44.696;10.522;2022-09-30T08:55:11;18.17;;;10.25;;
56005;SDS011;41888;44.696;10.522;2022-09-30T08:57:44;15.20;;;9.50;;
56005;SDS011;41888;44.696;10.522;2022-09-30T09:00:12;14.48;;;9.27;;
56005;SDS011;41888;44.696;10.522;2022-09-30T09:05:16;12.20;;;8.65;;
56005;SDS011;41888;44.696;10.522;2022-09-30T09:10:54;12.35;;;8.65;;
56005;SDS011;41888;44.696;10.522;2022-09-30T09:13:34;15.32;;;8.95;;
56005;SDS011;41888;44.696;10.522;2022-09-30T09:21:19;14.65;;;9.65;;
56005;SDS011;41888;44.696;10.522;2022-09-30T09:23:45;17.58;;;10.27;;
56005;SDS011;41888;44.696;10.522;2022-09-30T09:26:14;15.23;;;9.77;;
56005;SDS011;41888;44.696;10.522;2022-09-30T09:33:52;15.27;;;9.63;;
56005;SDS011;41888;44.696;10.522;2022-09-30T09:36:51;15.80;;;11.25;;
56005;SDS011;41888;44.696;10.522;2022-09-30T09:44:51;19.40;;;9.90;;
56005;SDS011;41888;44.696;10.522;2022-09-30T09:47:37;13.48;;;9.90;;
56005;SDS011;41888;44.696;10.522;2022-09-30T09:50:05;18.92;;;10.85;;
56005;SDS011;41888;44.696;10.522;2022-09-30T09:55:41;13.93;;;10.45;;
56005;SDS011;41888;44.696;10.522;2022-09-30T09:58:10;16.40;;;9.13;;
56005;SDS011;41888;44.696;10.522;2022-09-30T10:00:38;16.02;;;9.45;;
56005;SDS011;41888;44.696;10.522;2022-09-30T10:03:21;14.68;;;9.30;;
56005;SDS011;41888;44.696;10.522;2022-09-30T10:06:05;13.05;;;9.15;;
56005;SDS011;41888;44.696;10.522;2022-09-30T10:08:51;13.10;;;9.43;;
56005;SDS011;41888;44.696;10.522;2022-09-30T10:11:23;11.38;;;8.32;;
56005;SDS011;41888;44.696;10.522;2022-09-30T10:13:59;14.88;;;9.68;;
56005;SDS011;41888;44.696;10.522;2022-09-30T10:16:27;15.88;;;8.70;;
56005;SDS011;41888;44.696;10.522;2022-09-30T10:18:59;16.73;;;9.40;;
56005;SDS011;41888;44.696;10.522;2022-09-30T10:21:28;13.07;;;8.43;;
56005;SDS011;41888;44.696;10.522;2022-09-30T10:23:54;12.18;;;9.10;;
56005;SDS011;41888;44.696;10.522;2022-09-30T10:26:25;12.27;;;8.15;;
56005;SDS011;41888;44.696;10.522;2022-09-30T10:28:53;12.45;;;8.30;;
56005;SDS011;41888;44.696;10.522;2022-09-30T10:31:25;16.05;;;9.38;;
56005;SDS011;41888;44.696;10.522;2022-09-30T10:36:49;19.98;;;9.35;;
56005;SDS011;41888;44.696;10.522;2022-09-30T10:39:21;11.90;;;8.23;;
56005;SDS011;41888;44.696;10.522;2022-09-30T10:41:48;17.25;;;9.38;;
56005;SDS011;41888;44.696;10.522;2022-09-30T10:44:24;16.20;;;10.13;;
56005;SDS011;41888;44.696;10.522;2022-09-30T10:46:51;16.88;;;9.75;;
56005;SDS011;41888;44.696;10.522;2022-09-30T10:52:01;18.75;;;10.52;;
56005;SDS011;41888;44.696;10.522;2022-09-30T10:59:51;16.20;;;10.20;;
56005;SDS011;41888;44.696;10.522;2022-09-30T11:02:41;14.45;;;10.00;;
56005;SDS011;41888;44.696;10.522;2022-09-30T11:05:37;17.48;;;11.57;;
56005;SDS011;41888;44.696;10.522;2022-09-30T11:10:59;17.70;;;10.60;;
56005;SDS011;41888;44.696;10.522;2022-09-30T11:26:02;17.25;;;11.18;;
56005;SDS011;41888;44.696;10.522;2022-09-30T11:28:39;18.38;;;11.27;;
56005;SDS011;41888;44.696;10.522;2022-09-30T11:37:06;19.65;;;11.65;;
56005;SDS011;41888;44.696;10.522;2022-09-30T11:45:28;18.40;;;11.93;;
56005;SDS011;41888;44.696;10.522;2022-09-30T11:56:13;17.02;;;11.75;;
56005;SDS011;41888;44.696;10.522;2022-09-30T11:58:52;20.08;;;13.20;;
56005;SDS011;41888;44.696;10.522;2022-09-30T12:04:07;19.58;;;13.05;;
56005;SDS011;41888;44.696;10.522;2022-09-30T12:09:22;19.08;;;13.88;;
56005;SDS011;41888;44.696;10.522;2022-09-30T12:12:02;19.65;;;13.35;;
56005;SDS011;41888;44.696;10.522;2022-09-30T12:14:35;21.45;;;14.10;;
56005;SDS011;41888;44.696;10.522;2022-09-30T12:22:58;18.02;;;12.52;;
56005;SDS011;41888;44.696;10.522;2022-09-30T12:25:48;18.58;;;11.70;;
56005;SDS011;41888;44.696;10.522;2022-09-30T12:28:28;17.77;;;11.32;;
56005;SDS011;41888;44.696;10.522;2022-09-30T12:48:45;17.33;;;12.35;;
56005;SDS011;41888;44.696;10.522;2022-09-30T12:51:24;17.80;;;11.85;;
56005;SDS011;41888;44.696;10.522;2022-09-30T12:53:58;17.90;;;11.70;;
56005;SDS011;41888;44.696;10.522;2022-09-30T12:56:29;15.55;;;11.85;;
56005;SDS011;41888;44.696;10.522;2022-09-30T12:58:58;15.68;;;11.70;;
56005;SDS011;41888;44.696;10.522;2022-09-30T13:01:29;17.33;;;10.68;;
56005;SDS011;41888;44.696;10.522;2022-09-30T13:06:26;14.93;;;10.70;;
56005;SDS011;41888;44.696;10.522;2022-09-30T13:14:30;14.35;;;11.38;;
56005;SDS011;41888;44.696;10.522;2022-09-30T13:32:45;17.23;;;11.07;;
56005;SDS011;41888;44.696;10.522;2022-09-30T13:40:39;16.65;;;10.93;;
56005;SDS011;41888;44.696;10.522;2022-09-30T13:43:22;14.55;;;9.55;;
56005;SDS011;41888;44.696;10.522;2022-09-30T13:48:53;15.57;;;8.70;;
56005;SDS011;41888;44.696;10.522;2022-09-30T13:51:27;14.32;;;8.20;;
56005;SDS011;41888;44.696;10.522;2022-09-30T13:53:57;13.45;;;8.02;;
56005;SDS011;41888;44.696;10.522;2022-09-30T13:56:32;16.10;;;7.95;;
56005;SDS011;41888;44.696;10.522;2022-09-30T14:12:58;7.70;;;4.80;;
56005;SDS011;41888;44.696;10.522;2022-09-30T14:21:46;9.57;;;5.07;;
56005;SDS011;41888;44.696;10.522;2022-09-30T14:24:22;9.13;;;3.80;;
56005;SDS011;41888;44.696;10.522;2022-09-30T14:27:08;6.68;;;4.13;;
56005;SDS011;41888;44.696;10.522;2022-09-30T14:32:32;6.93;;;3.22;;
56005;SDS011;41888;44.696;10.522;2022-09-30T14:35:10;6.95;;;3.33;;
56005;SDS011;41888;44.696;10.522;2022-09-30T14:38:05;6.53;;;3.08;;
56005;SDS011;41888;44.696;10.522;2022-09-30T14:40:39;5.95;;;3.47;;
56005;SDS011;41888;44.696;10.522;2022-09-30T14:43:13;3.88;;;2.53;;
56005;SDS011;41888;44.696;10.522;2022-09-30T14:45:44;7.00;;;2.58;;
56005;SDS011;41888;44.696;10.522;2022-09-30T14:48:16;6.07;;;3.17;;
56005;SDS011;41888;44.696;10.522;2022-09-30T14:50:55;3.55;;;2.80;;
56005;SDS011;41888;44.696;10.522;2022-09-30T14:53:30;7.50;;;2.88;;
56005;SDS011;41888;44.696;10.522;2022-09-30T14:55:58;8.50;;;3.40;;
56005;SDS011;41888;44.696;10.522;2022-09-30T15:00:59;6.13;;;2.60;;
56005;SDS011;41888;44.696;10.522;2022-09-30T15:03:26;6.22;;;2.65;;
56005;SDS011;41888;44.696;10.522;2022-09-30T15:05:53;3.13;;;2.72;;
56005;SDS011;41888;44.696;10.522;2022-09-30T15:08:21;6.57;;;3.10;;
56005;SDS011;41888;44.696;10.522;2022-09-30T15:10:48;3.95;;;2.30;;
56005;SDS011;41888;44.696;10.522;2022-09-30T15:13:16;5.70;;;2.55;;
56005;SDS011;41888;44.696;10.522;2022-09-30T15:15:45;4.68;;;2.72;;
56005;SDS011;41888;44.696;10.522;2022-09-30T15:18:31;3.60;;;2.35;;
56005;SDS011;41888;44.696;10.522;2022-09-30T15:21:06;4.15;;;2.50;;
56005;SDS011;41888;44.696;10.522;2022-09-30T15:23:38;5.10;;;2.65;;
56005;SDS011;41888;44.696;10.522;2022-09-30T15:26:10;4.32;;;2.30;;
56005;SDS011;41888;44.696;10.522;2022-09-30T15:28:38;3.38;;;1.98;;
56005;SDS011;41888;44.696;10.522;2022-09-30T15:31:04;5.85;;;2.17;;
56005;SDS011;41888;44.696;10.522;2022-09-30T15:33:32;4.60;;;2.22;;
56005;SDS011;41888;44.696;10.522;2022-09-30T15:36:00;4.07;;;2.30;;
56005;SDS011;41888;44.696;10.522;2022-09-30T15:38:28;4.15;;;3.17;;
56005;SDS011;41888;44.696;10.522;2022-09-30T15:41:04;4.10;;;2.35;;
56005;SDS011;41888;44.696;10.522;2022-09-30T15:46:16;3.05;;;2.10;;
56005;SDS011;41888;44.696;10.522;2022-09-30T15:48:46;4.70;;;3.15;;
56005;SDS011;41888;44.696;10.522;2022-09-30T15:56:40;4.93;;;2.53;;
56005;SDS011;41888;44.696;10.522;2022-09-30T15:59:08;4.63;;;2.70;;
56005;SDS011;41888;44.696;10.522;2022-09-30T16:01:42;4.40;;;2.90;;
56005;SDS011;41888;44.696;10.522;2022-09-30T16:09:23;3.70;;;2.42;;
56005;SDS011;41888;44.696;10.522;2022-09-30T16:14:59;4.57;;;2.13;;
56005;SDS011;41888;44.696;10.522;2022-09-30T16:17:38;7.25;;;2.65;;
56005;SDS011;41888;44.696;10.522;2022-09-30T16:27:43;4.75;;;2.83;;
56005;SDS011;41888;44.696;10.522;2022-09-30T16:30:13;5.13;;;2.42;;
56005;SDS011;41888;44.696;10.522;2022-09-30T16:32:42;3.63;;;2.17;;
56005;SDS011;41888;44.696;10.522;2022-09-30T16:35:16;3.72;;;2.55;;
56005;SDS011;41888;44.696;10.522;2022-09-30T16:37:45;4.35;;;2.28;;
56005;SDS011;41888;44.696;10.522;2022-09-30T16:40:17;3.78;;;2.63;;
56005;SDS011;41888;44.696;10.522;2022-09-30T16:42:48;4.43;;;2.60;;
56005;SDS011;41888;44.696;10.522;2022-09-30T16:45:15;4.93;;;3.00;;
56005;SDS011;41888;44.696;10.522;2022-09-30T16:47:42;6.03;;;2.72;;
56005;SDS011;41888;44.696;10.522;2022-09-30T16:50:11;5.15;;;2.63;;
56005;SDS011;41888;44.696;10.522;2022-09-30T16:52:46;4.18;;;3.25;;
56005;SDS011;41888;44.696;10.522;2022-09-30T16:55:12;6.43;;;3.05;;
56005;SDS011;41888;44.696;10.522;2022-09-30T16:57:39;5.03;;;2.65;;
56005;SDS011;41888;44.696;10.522;2022-09-30T17:00:05;4.30;;;3.00;;
56005;SDS011;41888;44.696;10.522;2022-09-30T17:02:35;7.03;;;3.42;;
56005;SDS011;41888;44.696;10.522;2022-09-30T17:05:02;4.07;;;2.90;;
56005;SDS011;41888;44.696;10.522;2022-09-30T17:07:28;5.82;;;3.38;;
56005;SDS011;41888;44.696;10.522;2022-09-30T17:09:55;3.53;;;2.80;;
56005;SDS011;41888;44.696;10.522;2022-09-30T17:12:21;4.53;;;3.17;;
56005;SDS011;41888;44.696;10.522;2022-09-30T17:14:47;4.30;;;3.00;;
56005;SDS011;41888;44.696;10.522;2022-09-30T17:17:13;4.95;;;3.10;;
56005;SDS011;41888;44.696;10.522;2022-09-30T17:19:40;5.68;;;2.92;;
56005;SDS011;41888;44.696;10.522;2022-09-30T17:22:06;4.63;;;3.03;;
56005;SDS011;41888;44.696;10.522;2022-09-30T17:24:32;6.78;;;3.50;;
56005;SDS011;41888;44.696;10.522;2022-09-30T17:26:58;4.85;;;3.08;;
56005;SDS011;41888;44.696;10.522;2022-09-30T17:29:24;6.60;;;3.42;;
56005;SDS011;41888;44.696;10.522;2022-09-30T17:31:51;4.88;;;3.38;;
56005;SDS011;41888;44.696;10.522;2022-09-30T17:34:18;4.53;;;3.17;;
56005;SDS011;41888;44.696;10.522;2022-09-30T17:36:44;4.95;;;3.33;;
56005;SDS011;41888;44.696;10.522;2022-09-30T17:39:10;4.65;;;3.22;;
56005;SDS011;41888;44.696;10.522;2022-09-30T17:41:37;5.13;;;3.10;;
56005;SDS011;41888;44.696;10.522;2022-09-30T17:44:21;4.60;;;3.60;;
56005;SDS011;41888;44.696;10.522;2022-09-30T17:46:48;5.15;;;3.83;;
56005;SDS011;41888;44.696;10.522;2022-09-30T17:49:24;5.65;;;3.13;;
56005;SDS011;41888;44.696;10.522;2022-09-30T17:51:56;5.63;;;3.95;;
56005;SDS011;41888;44.696;10.522;2022-09-30T17:54:23;4.35;;;3.25;;
56005;SDS011;41888;44.696;10.522;2022-09-30T17:56:50;8.85;;;4.43;;
56005;SDS011;41888;44.696;10.522;2022-09-30T17:59:16;6.80;;;4.63;;
56005;SDS011;41888;44.696;10.522;2022-09-30T18:01:45;7.53;;;4.30;;
56005;SDS011;41888;44.696;10.522;2022-09-30T18:04:15;6.20;;;4.40;;
56005;SDS011;41888;44.696;10.522;2022-09-30T18:06:43;6.78;;;3.78;;
56005;SDS011;41888;44.696;10.522;2022-09-30T18:09:09;8.70;;;4.32;;
56005;SDS011;41888;44.696;10.522;2022-09-30T18:11:36;8.95;;;5.18;;
56005;SDS011;41888;44.696;10.522;2022-09-30T18:14:02;6.63;;;4.55;;
56005;SDS011;41888;44.696;10.522;2022-09-30T18:16:29;11.02;;;6.18;;
56005;SDS011;41888;44.696;10.522;2022-09-30T18:19:01;10.38;;;6.20;;
56005;SDS011;41888;44.696;10.522;2022-09-30T18:21:29;9.68;;;5.53;;
56005;SDS011;41888;44.696;10.522;2022-09-30T18:23:56;9.23;;;4.75;;
56005;SDS011;41888;44.696;10.522;2022-09-30T18:26:24;7.35;;;4.80;;
56005;SDS011;41888;44.696;10.522;2022-09-30T18:28:55;7.95;;;5.22;;
56005;SDS011;41888;44.696;10.522;2022-09-30T18:31:22;9.85;;;6.22;;
56005;SDS011;41888;44.696;10.522;2022-09-30T18:33:55;6.78;;;4.75;;
56005;SDS011;41888;44.696;10.522;2022-09-30T18:36:23;9.63;;;5.63;;
56005;SDS011;41888;44.696;10.522;2022-09-30T18:38:50;9.98;;;5.90;;
56005;SDS011;41888;44.696;10.522;2022-09-30T18:41:17;10.40;;;5.90;;
56005;SDS011;41888;44.696;10.522;2022-09-30T18:43:43;7.35;;;5.07;;
56005;SDS011;41888;44.696;10.522;2022-09-30T18:46:10;9.07;;;5.47;;
56005;SDS011;41888;44.696;10.522;2022-09-30T18:48:37;7.82;;;4.93;;